createdAt,value
2022-09-28T00:00:09.560Z,7.7
2022-09-28T00:03:10.036Z,7.8
2022-09-28T00:06:09.480Z,7.8
2022-09-28T00:09:09.553Z,7.8
2022-09-28T00:12:09.527Z,7.7
2022-09-28T00:15:09.551Z,7.7
2022-09-28T00:18:09.511Z,7.7
2022-09-28T00:21:09.459Z,7.7
2022-09-28T00:24:09.538Z,7.6
2022-09-28T00:27:09.578Z,7.5
2022-09-28T00:30:09.529Z,7.4
2022-09-28T00:33:09.479Z,7.4
2022-09-28T00:36:09.544Z,7.3
2022-09-28T00:39:09.540Z,7.2
2022-09-28T00:42:09.525Z,7
2022-09-28T00:45:09.531Z,6.9
2022-09-28T00:48:09.494Z,6.9
2022-09-28T00:51:09.488Z,6.7
2022-09-28T00:54:09.509Z,6.6
2022-09-28T00:57:09.436Z,6.4
2022-09-28T01:00:09.614Z,6.3
2022-09-28T01:03:09.568Z,6.3
2022-09-28T01:06:09.528Z,6.1
2022-09-28T01:09:09.645Z,6.1
2022-09-28T01:12:09.488Z,6.1
2022-09-28T01:15:09.549Z,6
2022-09-28T01:18:09.476Z,6
2022-09-28T01:21:09.497Z,6
2022-09-28T01:24:09.487Z,5.8
2022-09-28T01:27:09.527Z,5.6
2022-09-28T01:30:09.503Z,5.4
2022-09-28T01:33:09.557Z,5.4
2022-09-28T01:36:09.478Z,5.4
2022-09-28T01:39:09.634Z,5.5
2022-09-28T01:42:09.500Z,5.6
2022-09-28T01:45:09.516Z,5.4
2022-09-28T01:48:09.507Z,5.5
2022-09-28T01:51:09.520Z,5.5
2022-09-28T01:54:09.504Z,5.7
2022-09-28T01:57:09.502Z,5.7
2022-09-28T02:00:09.587Z,5.7
2022-09-28T02:03:09.530Z,5.7
2022-09-28T02:06:09.535Z,5.7
2022-09-28T02:09:09.496Z,5.7
2022-09-28T02:12:09.490Z,5.6
2022-09-28T02:15:09.539Z,5.4
2022-09-28T02:18:09.741Z,5.4
2022-09-28T02:21:09.641Z,5.5
2022-09-28T02:24:09.614Z,5.6
2022-09-28T02:27:09.518Z,5.8
2022-09-28T02:30:09.584Z,5.9
2022-09-28T02:33:09.491Z,5.8
2022-09-28T02:36:09.541Z,5.7
2022-09-28T02:39:09.526Z,5.7
2022-09-28T02:42:09.535Z,5.7
2022-09-28T02:45:09.476Z,5.7
2022-09-28T02:48:09.554Z,5.7
2022-09-28T02:51:09.512Z,5.8
2022-09-28T02:54:09.508Z,5.7
2022-09-28T02:57:09.462Z,5.8
2022-09-28T03:00:09.561Z,5.8
2022-09-28T03:03:09.492Z,5.9
2022-09-28T03:06:09.516Z,6
2022-09-28T03:09:09.488Z,6.1
2022-09-28T03:12:09.586Z,6.1
2022-09-28T03:15:09.594Z,6.1
2022-09-28T03:18:09.493Z,6.1
2022-09-28T03:21:09.534Z,6.1
2022-09-28T03:24:09.541Z,6
2022-09-28T03:27:09.471Z,6
2022-09-28T03:30:09.576Z,6
2022-09-28T03:33:09.606Z,6.1
2022-09-28T03:36:09.507Z,6.1
2022-09-28T03:39:09.486Z,6.1
2022-09-28T03:42:09.564Z,6.2
2022-09-28T03:45:09.489Z,6.1
2022-09-28T03:48:09.573Z,6.1
2022-09-28T03:51:09.536Z,6.2
2022-09-28T03:54:09.509Z,6.2
2022-09-28T03:57:09.508Z,6.2
2022-09-28T04:00:09.567Z,6.2
2022-09-28T04:03:09.534Z,6.2
2022-09-28T04:06:09.510Z,6.3
2022-09-28T04:09:09.498Z,6.4
2022-09-28T04:12:13.533Z,6.4
2022-09-28T04:15:09.518Z,6.4
2022-09-28T04:18:09.568Z,6.4
2022-09-28T04:21:09.574Z,6.5
2022-09-28T04:24:09.522Z,6.6
2022-09-28T04:27:09.514Z,6.6
2022-09-28T04:30:09.589Z,6.6
2022-09-28T04:33:09.521Z,6.6
2022-09-28T04:36:09.546Z,6.6
2022-09-28T04:39:09.533Z,6.5
2022-09-28T04:42:09.493Z,6.6
2022-09-28T04:45:09.534Z,6.6
2022-09-28T04:48:09.529Z,6.6
2022-09-28T04:51:09.548Z,6.6
2022-09-28T04:54:09.511Z,6.6
2022-09-28T04:57:09.502Z,6.6
2022-09-28T05:00:09.671Z,6.6
2022-09-28T05:03:09.561Z,6.6
2022-09-28T05:06:09.488Z,6.6
2022-09-28T05:09:09.510Z,6.6
2022-09-28T05:12:09.467Z,6.6
2022-09-28T05:15:09.623Z,6.6
2022-09-28T05:18:09.547Z,6.6
2022-09-28T05:21:09.553Z,6.7
2022-09-28T05:24:09.830Z,6.7
2022-09-28T05:27:09.528Z,6.7
2022-09-28T05:30:09.720Z,6.7
2022-09-28T05:33:09.551Z,6.7
2022-09-28T05:36:10.860Z,6.7
2022-09-28T05:39:09.565Z,6.8
2022-09-28T05:42:09.594Z,6.8
2022-09-28T05:45:09.555Z,6.8
2022-09-28T05:48:09.633Z,6.8
2022-09-28T05:51:09.503Z,6.9
2022-09-28T05:54:15.209Z,6.8
2022-09-28T05:57:09.589Z,6.8
2022-09-28T06:00:09.622Z,6.8
2022-09-28T06:03:15.569Z,6.8
2022-09-28T06:06:09.551Z,6.8
2022-09-28T06:09:09.520Z,6.8
2022-09-28T06:12:09.570Z,6.8
2022-09-28T06:15:09.557Z,6.8
2022-09-28T06:18:09.532Z,6.8
2022-09-28T06:21:09.582Z,6.9
2022-09-28T06:24:09.550Z,7
2022-09-28T06:27:09.541Z,7.1
2022-09-28T06:30:09.702Z,7.1
2022-09-28T06:33:09.515Z,7.2
2022-09-28T06:36:09.550Z,7.2
2022-09-28T06:39:09.623Z,7.3
2022-09-28T06:42:09.541Z,7.4
2022-09-28T06:45:09.563Z,7.4
2022-09-28T06:48:09.525Z,7.6
2022-09-28T06:51:09.541Z,7.5
2022-09-28T06:54:09.541Z,7.5
2022-09-28T06:57:09.544Z,7.4
2022-09-28T07:00:09.737Z,7.4
2022-09-28T07:03:09.543Z,7.4
2022-09-28T07:06:09.644Z,7.4
2022-09-28T07:09:55.194Z,7.4
2022-09-28T07:12:09.614Z,7.4
2022-09-28T07:15:09.589Z,7.5
2022-09-28T07:18:12.962Z,7.6
2022-09-28T07:21:16.147Z,7.6
2022-09-28T07:24:09.534Z,7.6
2022-09-28T07:27:09.522Z,7.6
2022-09-28T07:30:09.622Z,7.7
2022-09-28T07:33:09.518Z,7.8
2022-09-28T07:36:09.636Z,7.9
2022-09-28T07:39:09.615Z,8
2022-09-28T07:42:12.042Z,8
2022-09-28T07:45:09.536Z,8
2022-09-28T07:48:09.947Z,8.1
2022-09-28T07:51:09.583Z,8.1
2022-09-28T07:54:09.566Z,8.1
2022-09-28T07:57:09.563Z,8.1
2022-09-28T08:00:09.607Z,8.1
2022-09-28T08:03:09.559Z,8.1
2022-09-28T08:06:09.570Z,8
2022-09-28T08:09:09.641Z,8
2022-09-28T08:12:09.613Z,7.9
2022-09-28T08:15:09.613Z,8
2022-09-28T08:18:11.960Z,8.1
2022-09-28T08:21:09.546Z,8
2022-09-28T08:24:09.600Z,8
2022-09-28T08:27:09.654Z,8.1
2022-09-28T08:30:09.720Z,8.1
2022-09-28T08:33:09.554Z,8.1
2022-09-28T08:36:09.507Z,8.1
2022-09-28T08:39:09.650Z,8.2
2022-09-28T08:42:09.590Z,8.3
2022-09-28T08:45:09.583Z,8.4
2022-09-28T08:48:09.576Z,8.4
2022-09-28T08:51:09.595Z,8.4
2022-09-28T08:54:14.445Z,8.4
2022-09-28T08:57:09.590Z,8.5
2022-09-28T09:00:15.940Z,8.4
2022-09-28T09:03:09.672Z,8.4
2022-09-28T09:06:09.521Z,8.5
2022-09-28T09:09:09.593Z,8.6
2022-09-28T09:12:09.593Z,8.8
2022-09-28T09:15:09.618Z,8.8
2022-09-28T09:18:09.603Z,8.9
2022-09-28T09:21:09.572Z,8.9
2022-09-28T09:24:09.498Z,8.9
2022-09-28T09:27:09.571Z,8.9
2022-09-28T09:30:09.549Z,8.7
2022-09-28T09:33:09.647Z,8.8
2022-09-28T09:36:09.497Z,8.8
2022-09-28T09:39:09.554Z,8.9
2022-09-28T09:42:09.872Z,8.9
2022-09-28T09:45:09.631Z,8.8
2022-09-28T09:48:09.666Z,8.7
2022-09-28T09:51:09.648Z,8.7
2022-09-28T09:54:09.607Z,8.5
2022-09-28T09:57:09.557Z,8.5
2022-09-28T10:00:09.789Z,8.5
2022-09-28T10:03:09.739Z,8.6
2022-09-28T10:06:09.581Z,8.6
2022-09-28T10:09:09.660Z,8.6
2022-09-28T10:12:09.570Z,8.7
2022-09-28T10:15:09.617Z,8.8
2022-09-28T10:18:09.505Z,8.8
2022-09-28T10:21:09.655Z,8.8
2022-09-28T10:24:09.703Z,9.2
2022-09-28T10:27:09.610Z,9.5
2022-09-28T10:30:09.624Z,9.8
2022-09-28T10:33:09.647Z,10.1
2022-09-28T10:36:09.555Z,10.1
2022-09-28T10:39:09.605Z,10.1
2022-09-28T10:42:09.596Z,9.9
2022-09-28T10:45:09.592Z,9.8
2022-09-28T10:48:09.595Z,9.6
2022-09-28T10:51:09.678Z,9.5
2022-09-28T10:54:09.561Z,9.6
2022-09-28T10:57:15.504Z,9.6
2022-09-28T11:00:09.557Z,9.8
2022-09-28T11:03:09.740Z,9.8
2022-09-28T11:06:09.587Z,9.9
2022-09-28T11:09:09.687Z,9.9
2022-09-28T11:12:09.567Z,9.8
2022-09-28T11:15:09.562Z,9.7
2022-09-28T11:18:09.566Z,9.7
2022-09-28T11:21:13.278Z,9.5
2022-09-28T11:24:09.606Z,9.4
2022-09-28T11:27:09.734Z,9.3
2022-09-28T11:30:09.706Z,9.3
2022-09-28T11:33:09.585Z,9.4
2022-09-28T11:36:09.584Z,9.3
2022-09-28T11:39:09.619Z,9.4
2022-09-28T11:42:11.908Z,9.3
2022-09-28T11:48:09.551Z,9.5
2022-09-28T11:51:09.577Z,9.6
2022-09-28T11:54:09.566Z,9.6
2022-09-28T11:57:09.534Z,9.6
2022-09-28T12:00:09.687Z,9.8
2022-09-28T12:03:10.685Z,9.9
2022-09-28T12:06:10.023Z,10.1
2022-09-28T12:09:09.622Z,10.1
2022-09-28T12:12:09.682Z,10.2
2022-09-28T12:15:09.616Z,10.3
2022-09-28T12:18:10.042Z,10.5
2022-09-28T12:21:14.238Z,10.6
2022-09-28T12:24:09.575Z,10.8
2022-09-28T12:27:09.539Z,10.7
2022-09-28T12:30:09.686Z,10.8
2022-09-28T12:33:09.648Z,10.7
2022-09-28T12:36:09.496Z,10.7
2022-09-28T12:42:09.479Z,10.9
2022-09-28T12:45:09.602Z,10.9
2022-09-28T12:48:09.565Z,10.9
2022-09-28T12:51:10.219Z,10.9
2022-09-28T12:54:09.638Z,10.8
2022-09-28T12:57:09.573Z,10.8
2022-09-28T13:00:09.938Z,10.8
2022-09-28T13:03:09.743Z,10.9
2022-09-28T13:06:09.554Z,10.9
2022-09-28T13:09:09.719Z,10.8
2022-09-28T13:12:09.577Z,10.6
2022-09-28T13:15:09.639Z,10.6
2022-09-28T13:18:09.611Z,10.6
2022-09-28T13:21:09.576Z,10.5
2022-09-28T13:24:39.219Z,10.4
2022-09-28T13:27:09.564Z,10.3
2022-09-28T13:30:10.202Z,10.4
2022-09-28T13:33:09.578Z,10.5
2022-09-28T13:36:09.633Z,10.8
2022-09-28T13:39:09.625Z,11.5
2022-09-28T13:42:09.573Z,11.8
2022-09-28T13:45:09.616Z,11.9
2022-09-28T13:48:09.574Z,11.9
2022-09-28T13:51:09.694Z,11.6
2022-09-28T13:54:09.550Z,11.3
2022-09-28T13:57:09.619Z,11.3
2022-09-28T14:00:09.603Z,11.2
2022-09-28T14:03:10.080Z,11.1
2022-09-28T14:06:09.880Z,11.1
2022-09-28T14:09:09.630Z,11.3
2022-09-28T14:12:09.676Z,11.3
2022-09-28T14:15:09.629Z,11.4
2022-09-28T14:18:09.682Z,11.4
2022-09-28T14:21:09.577Z,11.6
2022-09-28T14:24:09.601Z,11.9
2022-09-28T14:27:09.540Z,12.2
2022-09-28T14:30:09.696Z,12.3
2022-09-28T14:33:09.523Z,12.4
2022-09-28T14:36:09.552Z,12.8
2022-09-28T14:39:09.602Z,12.9
2022-09-28T14:42:09.526Z,12.9
2022-09-28T14:45:16.021Z,12.4
2022-09-28T14:48:09.722Z,12.5
2022-09-28T14:51:09.591Z,12.6
2022-09-28T14:54:09.582Z,12.5
2022-09-28T14:57:09.620Z,12.5
2022-09-28T15:00:09.765Z,12.6
2022-09-28T15:03:14.683Z,12.8
2022-09-28T15:06:09.583Z,12.6
2022-09-28T15:09:09.605Z,12.4
2022-09-28T15:12:09.491Z,12.2
2022-09-28T15:15:09.621Z,12.1
2022-09-28T15:18:09.667Z,11.9
2022-09-28T15:21:09.624Z,11.9
2022-09-28T15:24:09.548Z,12.1
2022-09-28T15:27:09.608Z,12.2
2022-09-28T15:30:09.700Z,12.1
2022-09-28T15:33:09.557Z,11.9
2022-09-28T15:36:09.536Z,11.6
2022-09-28T15:39:09.706Z,11.3
2022-09-28T15:42:09.518Z,11.3
2022-09-28T15:45:09.616Z,11.1
2022-09-28T15:48:09.556Z,10.9
2022-09-28T15:51:09.532Z,10.9
2022-09-28T15:54:09.596Z,10.8
2022-09-28T15:57:09.574Z,10.8
2022-09-28T16:00:09.606Z,10.7
2022-09-28T16:03:10.264Z,10.6
2022-09-28T16:06:09.555Z,10.5
2022-09-28T16:09:09.629Z,10.4
2022-09-28T16:12:09.588Z,10.3
2022-09-28T16:15:09.586Z,10.2
2022-09-28T16:18:09.639Z,10.1
2022-09-28T16:21:09.608Z,10.1
2022-09-28T16:24:09.611Z,9.9
2022-09-28T16:27:09.543Z,9.9
2022-09-28T16:30:09.765Z,9.8
2022-09-28T16:33:09.497Z,9.8
2022-09-28T16:36:09.526Z,9.7
2022-09-28T16:39:09.615Z,9.6
2022-09-28T16:42:09.549Z,9.6
2022-09-28T16:45:09.615Z,9.6
2022-09-28T16:48:09.465Z,9.6
2022-09-28T16:51:09.579Z,9.5
2022-09-28T16:54:09.592Z,9.4
2022-09-28T16:57:09.664Z,9.4
2022-09-28T17:00:09.646Z,9.4
2022-09-28T17:03:10.134Z,9.3
2022-09-28T17:06:09.495Z,9.3
2022-09-28T17:09:09.528Z,9.3
2022-09-28T17:12:09.557Z,9.3
2022-09-28T17:15:09.515Z,9.2
2022-09-28T17:18:09.527Z,9.2
2022-09-28T17:21:09.538Z,9.2
2022-09-28T17:24:09.529Z,9.2
2022-09-28T17:27:09.561Z,9.1
2022-09-28T17:30:09.637Z,9.1
2022-09-28T17:33:09.464Z,9.1
2022-09-28T17:36:09.922Z,9.1
2022-09-28T17:39:09.558Z,9.1
2022-09-28T17:42:09.439Z,9.1
2022-09-28T17:45:09.558Z,9.1
2022-09-28T17:48:09.494Z,9.1
2022-09-28T17:51:09.496Z,9
2022-09-28T17:54:09.506Z,9
2022-09-28T17:57:09.612Z,9
2022-09-28T18:00:09.551Z,8.9
2022-09-28T18:03:09.955Z,8.9
2022-09-28T18:06:09.552Z,8.9
2022-09-28T18:09:09.516Z,8.9
2022-09-28T18:12:09.512Z,8.9
2022-09-28T18:15:09.520Z,8.9
2022-09-28T18:18:09.534Z,8.9
2022-09-28T18:21:09.571Z,8.8
2022-09-28T18:24:09.541Z,8.8
2022-09-28T18:27:09.563Z,8.8
2022-09-28T18:30:09.534Z,8.8
2022-09-28T18:33:09.474Z,8.8
2022-09-28T18:36:09.614Z,8.8
2022-09-28T18:39:09.738Z,8.7
2022-09-28T18:42:09.507Z,8.8
2022-09-28T18:45:09.559Z,8.7
2022-09-28T18:48:09.529Z,8.7
2022-09-28T18:51:09.555Z,8.7
2022-09-28T18:54:09.555Z,8.7
2022-09-28T18:57:09.590Z,8.7
2022-09-28T19:00:09.534Z,8.7
2022-09-28T19:03:10.576Z,8.7
2022-09-28T19:06:09.890Z,8.7
2022-09-28T19:09:09.657Z,8.7
2022-09-28T19:12:09.490Z,8.6
2022-09-28T19:15:09.475Z,8.7
2022-09-28T19:18:09.578Z,8.6
2022-09-28T19:21:09.568Z,8.6
2022-09-28T19:24:09.529Z,8.6
2022-09-28T19:27:09.519Z,8.5
2022-09-28T19:30:09.490Z,8.5
2022-09-28T19:33:09.508Z,8.4
2022-09-28T19:36:09.547Z,8.5
2022-09-28T19:39:09.514Z,8.5
2022-09-28T19:42:09.605Z,8.5
2022-09-28T19:45:09.537Z,8.5
2022-09-28T19:48:09.556Z,8.5
2022-09-28T19:51:09.478Z,8.5
2022-09-28T19:54:09.529Z,8.5
2022-09-28T19:57:10.057Z,8.5
2022-09-28T20:00:12.865Z,8.5
2022-09-28T20:03:09.945Z,8.4
2022-09-28T20:06:11.816Z,8.4
2022-09-28T20:09:09.537Z,8.5
2022-09-28T20:12:09.495Z,8.5
2022-09-28T20:15:09.643Z,8.5
2022-09-28T20:18:09.701Z,8.5
2022-09-28T20:21:09.506Z,8.4
2022-09-28T20:24:09.501Z,8.4
2022-09-28T20:27:09.548Z,8.4
2022-09-28T20:30:09.458Z,8.4
2022-09-28T20:33:09.520Z,8.5
2022-09-28T20:36:09.490Z,8.4
2022-09-28T20:39:09.533Z,8.4
2022-09-28T20:42:09.515Z,8.4
2022-09-28T20:45:09.711Z,8.4
2022-09-28T20:48:09.486Z,8.4
2022-09-28T20:51:09.530Z,8.4
2022-09-28T20:54:09.570Z,8.4
2022-09-28T20:57:09.556Z,8.4
2022-09-28T21:00:09.601Z,8.4
2022-09-28T21:03:10.088Z,8.4
2022-09-28T21:06:15.846Z,8.4
2022-09-28T21:09:09.525Z,8.4
2022-09-28T21:12:09.517Z,8.4
2022-09-28T21:15:15.045Z,8.4
2022-09-28T21:18:09.516Z,8.4
2022-09-28T21:21:09.467Z,8.4
2022-09-28T21:24:09.570Z,8.4
2022-09-28T21:27:09.506Z,8.4
2022-09-28T21:30:09.551Z,8.4
2022-09-28T21:33:09.514Z,8.4
2022-09-28T21:36:09.530Z,8.3
2022-09-28T21:39:15.153Z,8.2
2022-09-28T21:42:09.540Z,8.2
2022-09-28T21:45:09.471Z,8.1
2022-09-28T21:48:09.433Z,8.1
2022-09-28T21:51:09.511Z,8
2022-09-28T21:54:09.497Z,7.9
2022-09-28T21:57:09.453Z,7.9
2022-09-28T22:00:09.697Z,7.7
2022-09-28T22:03:09.917Z,7.6
2022-09-28T22:06:09.526Z,7.5
2022-09-28T22:09:09.570Z,7.4
2022-09-28T22:12:09.485Z,7.4
2022-09-28T22:15:09.497Z,7.4
2022-09-28T22:18:09.485Z,7.3
2022-09-28T22:21:09.500Z,7.3
2022-09-28T22:24:09.607Z,7.4
2022-09-28T22:27:09.537Z,7.4
2022-09-28T22:30:09.530Z,7.4
2022-09-28T22:33:09.623Z,7.4
2022-09-28T22:36:09.505Z,7.4
2022-09-28T22:39:09.551Z,7.4
2022-09-28T22:42:09.565Z,7.4
2022-09-28T22:45:09.585Z,7.4
2022-09-28T22:48:09.505Z,7.4
2022-09-28T22:51:09.528Z,7.4
2022-09-28T22:54:09.514Z,7.4
2022-09-28T22:57:09.552Z,7.2
2022-09-28T23:00:09.555Z,7.1
2022-09-28T23:03:10.042Z,7
2022-09-28T23:06:13.456Z,6.9
2022-09-28T23:09:09.567Z,6.9
2022-09-28T23:12:09.517Z,6.9
2022-09-28T23:15:09.555Z,6.9
2022-09-28T23:18:09.542Z,6.9
2022-09-28T23:21:09.488Z,7
2022-09-28T23:24:09.601Z,6.9
2022-09-28T23:27:09.540Z,7
2022-09-28T23:30:09.549Z,7
2022-09-28T23:33:09.494Z,7
2022-09-28T23:36:09.536Z,6.9
2022-09-28T23:39:09.608Z,6.9
2022-09-28T23:42:09.463Z,6.9
2022-09-28T23:45:09.479Z,6.9
2022-09-28T23:48:09.599Z,6.9
2022-09-28T23:51:09.487Z,6.9
2022-09-28T23:54:09.539Z,6.8
2022-09-28T23:57:09.495Z,6.8
